createdAt,value
2019-01-12T00:00:55.737Z,18.90
2019-01-12T00:01:55.716Z,21.20
2019-01-12T00:02:55.703Z,18.70
2019-01-12T00:03:55.671Z,20.30
2019-01-12T00:04:55.650Z,18.80
2019-01-12T00:05:55.631Z,19.10
2019-01-12T00:06:55.604Z,16.30
2019-01-12T00:07:55.619Z,18.50
2019-01-12T00:08:56.413Z,17.90
2019-01-12T00:09:55.547Z,18.10
2019-01-12T00:10:55.524Z,16.40
2019-01-12T00:11:55.505Z,15.50
2019-01-12T00:12:55.487Z,20.40
2019-01-12T00:13:55.490Z,18.20
2019-01-12T00:14:55.450Z,17.60
2019-01-12T00:15:55.430Z,16.50
2019-01-12T00:16:55.400Z,15.00
2019-01-12T00:17:55.382Z,14.20
2019-01-12T00:18:55.391Z,15.70
2019-01-12T00:19:55.345Z,11.90
2019-01-12T00:20:55.324Z,13.60
2019-01-12T00:21:55.303Z,12.40
2019-01-12T00:22:55.279Z,12.50
2019-01-12T00:23:55.275Z,14.40
2019-01-12T00:24:55.238Z,14.00
2019-01-12T00:25:55.214Z,14.50
2019-01-12T00:26:55.218Z,12.10
2019-01-12T00:27:55.178Z,14.50
2019-01-12T00:28:55.153Z,14.00
2019-01-12T00:29:55.147Z,13.70
2019-01-12T00:30:55.115Z,15.30
2019-01-12T00:31:55.107Z,14.70
2019-01-12T00:32:55.078Z,16.20
2019-01-12T00:33:55.053Z,13.90
2019-01-12T00:34:55.053Z,13.10
2019-01-12T00:35:55.018Z,14.00
2019-01-12T00:36:54.989Z,14.20
2019-01-12T00:37:54.970Z,14.60
2019-01-12T00:38:54.949Z,15.70
2019-01-12T00:39:54.928Z,15.20
2019-01-12T00:40:54.918Z,13.90
2019-01-12T00:41:54.889Z,14.90
2019-01-12T00:42:54.866Z,16.50
2019-01-12T00:43:54.873Z,13.00
2019-01-12T00:44:54.821Z,15.80
2019-01-12T00:45:54.812Z,16.20
2019-01-12T00:46:54.788Z,14.30
2019-01-12T00:47:54.761Z,16.10
2019-01-12T00:48:54.744Z,14.20
2019-01-12T00:49:54.740Z,14.30
2019-01-12T00:50:54.699Z,16.50
2019-01-12T00:51:55.389Z,16.60
2019-01-12T00:52:54.659Z,17.80
2019-01-12T00:53:54.657Z,17.50
2019-01-12T00:54:54.616Z,18.10
2019-01-12T00:55:54.615Z,20.20
2019-01-12T00:56:54.573Z,20.20
2019-01-12T00:57:54.551Z,16.30
2019-01-12T00:58:54.538Z,19.30
2019-01-12T00:59:54.515Z,18.60
2019-01-12T01:00:54.492Z,18.20
2019-01-12T01:01:54.495Z,19.90
2019-01-12T01:02:54.450Z,20.00
2019-01-12T01:03:54.445Z,20.90
2019-01-12T01:04:54.403Z,19.10
2019-01-12T01:05:54.404Z,19.20
2019-01-12T01:06:54.367Z,19.90
2019-01-12T01:07:54.358Z,20.00
2019-01-12T01:08:54.333Z,19.90
2019-01-12T01:09:54.302Z,20.70
2019-01-12T01:10:54.293Z,19.20
2019-01-12T01:11:54.260Z,20.60
2019-01-12T01:12:54.241Z,20.90
2019-01-12T01:13:54.222Z,22.40
2019-01-12T01:14:54.202Z,19.90
2019-01-12T01:15:54.198Z,19.90
2019-01-12T01:16:54.159Z,21.90
2019-01-12T01:17:54.138Z,21.50
2019-01-12T01:18:54.118Z,19.20
2019-01-12T01:19:54.109Z,19.80
2019-01-12T01:20:54.074Z,21.10
2019-01-12T01:21:54.071Z,22.40
2019-01-12T01:22:54.034Z,19.00
2019-01-12T01:23:54.015Z,21.70
2019-01-12T01:24:53.991Z,21.90
2019-01-12T01:25:53.975Z,21.10
2019-01-12T01:26:53.967Z,19.50
2019-01-12T01:27:53.940Z,20.50
2019-01-12T01:28:53.907Z,22.20
2019-01-12T01:29:53.910Z,19.90
2019-01-12T01:30:53.867Z,20.30
2019-01-12T01:31:53.847Z,24.50
2019-01-12T01:32:53.850Z,21.60
2019-01-12T01:33:53.804Z,22.10
2019-01-12T01:34:53.785Z,22.20
2019-01-12T01:35:53.761Z,23.80
2019-01-12T01:36:53.787Z,23.00
2019-01-12T01:37:53.722Z,20.60
2019-01-12T01:38:53.694Z,23.10
2019-01-12T01:39:53.678Z,21.80
2019-01-12T01:40:53.658Z,23.00
2019-01-12T01:41:53.642Z,21.90
2019-01-12T01:42:53.646Z,22.80
2019-01-12T01:43:53.603Z,22.80
2019-01-12T01:44:53.588Z,21.80
2019-01-12T01:45:53.562Z,24.10
2019-01-12T01:46:53.537Z,19.70
2019-01-12T01:47:53.514Z,22.40
2019-01-12T01:48:53.510Z,22.40
2019-01-12T01:49:53.526Z,21.40
2019-01-12T01:50:53.457Z,19.80
2019-01-12T01:51:53.430Z,20.90
2019-01-12T01:52:53.407Z,21.80
2019-01-12T01:53:53.410Z,20.40
2019-01-12T01:54:53.372Z,22.10
2019-01-12T01:55:53.345Z,20.90
2019-01-12T01:56:53.325Z,23.70
2019-01-12T01:57:53.307Z,21.00
2019-01-12T01:58:53.280Z,24.00
2019-01-12T01:59:53.285Z,24.10
2019-01-12T02:00:53.238Z,22.70
2019-01-12T02:01:53.225Z,22.50
2019-01-12T02:02:53.202Z,22.90
2019-01-12T02:03:53.177Z,24.70
2019-01-12T02:04:53.163Z,24.60
2019-01-12T02:05:53.152Z,23.50
2019-01-12T02:06:53.127Z,25.00
2019-01-12T02:07:53.095Z,26.00
2019-01-12T02:08:53.074Z,24.40
2019-01-12T02:09:53.053Z,24.70
2019-01-12T02:10:53.055Z,23.70
2019-01-12T02:11:53.028Z,22.40
2019-01-12T02:12:52.993Z,25.20
2019-01-12T02:13:52.973Z,24.70
2019-01-12T02:14:52.951Z,23.10
2019-01-12T02:15:52.927Z,24.10
2019-01-12T02:16:52.904Z,21.80
2019-01-12T02:17:52.913Z,23.00
2019-01-12T02:18:52.872Z,21.90
2019-01-12T02:19:52.846Z,22.60
2019-01-12T02:20:52.827Z,24.50
2019-01-12T02:21:52.803Z,23.20
2019-01-12T02:22:52.789Z,22.60
2019-01-12T02:23:52.788Z,24.30
2019-01-12T02:24:59.762Z,23.80
2019-01-12T02:25:52.775Z,23.60
2019-01-12T02:26:52.702Z,25.40
2019-01-12T02:27:52.682Z,24.00
2019-01-12T02:28:52.677Z,23.80
2019-01-12T02:29:52.634Z,25.20
2019-01-12T02:30:52.613Z,24.60
2019-01-12T02:31:52.593Z,23.60
2019-01-12T02:32:52.575Z,26.30
2019-01-12T02:33:52.553Z,25.70
2019-01-12T02:34:52.553Z,26.40
2019-01-12T02:35:52.514Z,25.50
2019-01-12T02:36:52.497Z,27.50
2019-01-12T02:37:52.467Z,26.60
2019-01-12T02:38:52.449Z,27.70
2019-01-12T02:39:52.427Z,28.50
2019-01-12T02:40:52.428Z,29.60
2019-01-12T02:41:52.402Z,28.50
2019-01-12T02:42:52.365Z,30.50
2019-01-12T02:43:52.353Z,28.10
2019-01-12T02:44:52.337Z,28.00
2019-01-12T02:45:52.303Z,29.10
2019-01-12T02:46:52.283Z,29.80
2019-01-12T02:47:52.260Z,27.00
2019-01-12T02:48:52.241Z,30.00
2019-01-12T02:49:52.219Z,30.70
2019-01-12T02:50:52.256Z,31.90
2019-01-12T02:51:52.200Z,32.10
2019-01-12T02:52:52.154Z,29.80
2019-01-12T02:53:52.947Z,29.20
2019-01-12T02:54:52.114Z,29.80
2019-01-12T02:55:52.119Z,32.90
2019-01-12T02:56:52.071Z,33.30
2019-01-12T02:57:52.048Z,31.70
2019-01-12T02:58:52.037Z,31.80
2019-01-12T02:59:52.006Z,32.70
2019-01-12T03:00:51.985Z,31.50
2019-01-12T03:01:51.983Z,31.30
2019-01-12T03:02:51.947Z,32.00
2019-01-12T03:03:51.924Z,30.90
2019-01-12T03:04:51.904Z,31.50
2019-01-12T03:05:51.892Z,30.20
2019-01-12T03:06:51.878Z,30.80
2019-01-12T03:07:51.858Z,32.20
2019-01-12T03:08:51.862Z,29.60
2019-01-12T03:09:51.817Z,30.90
2019-01-12T03:10:51.779Z,29.50
2019-01-12T03:11:51.759Z,28.60
2019-01-12T03:12:51.739Z,28.00
2019-01-12T03:13:51.727Z,30.00
2019-01-12T03:14:51.696Z,31.40
2019-01-12T03:15:51.672Z,32.30
2019-01-12T03:16:51.655Z,29.90
2019-01-12T03:17:51.650Z,30.90
2019-01-12T03:18:51.630Z,30.10
2019-01-12T03:19:51.594Z,30.80
2019-01-12T03:20:51.570Z,30.50
2019-01-12T03:21:51.546Z,31.20
2019-01-12T03:22:51.526Z,31.10
2019-01-12T03:23:51.526Z,30.70
2019-01-12T03:24:51.498Z,29.50
2019-01-12T03:25:51.549Z,30.90
2019-01-12T03:26:51.444Z,33.40
2019-01-12T03:27:51.422Z,33.10
2019-01-12T03:28:51.403Z,33.90
2019-01-12T03:29:51.397Z,32.60
2019-01-12T03:30:51.369Z,33.80
2019-01-12T03:31:51.348Z,35.80
2019-01-12T03:32:51.331Z,35.00
2019-01-12T03:33:51.297Z,35.40
2019-01-12T03:34:51.295Z,34.90
2019-01-12T03:35:51.255Z,37.30
2019-01-12T03:36:51.239Z,38.10
2019-01-12T03:37:51.214Z,34.40
2019-01-12T03:38:51.201Z,33.80
2019-01-12T03:39:51.176Z,32.20
2019-01-12T03:40:51.169Z,31.90
2019-01-12T03:41:51.126Z,33.60
2019-01-12T03:42:51.126Z,33.50
2019-01-12T03:43:51.087Z,35.90
2019-01-12T03:44:51.068Z,32.90
2019-01-12T03:45:51.047Z,34.90
2019-01-12T03:46:51.022Z,33.80
2019-01-12T03:47:51.002Z,35.60
2019-01-12T03:48:50.999Z,32.20
2019-01-12T03:49:50.962Z,34.30
2019-01-12T03:50:50.960Z,34.50
2019-01-12T03:51:50.920Z,34.10
2019-01-12T03:52:50.907Z,36.50
2019-01-12T03:53:50.877Z,35.80
2019-01-12T03:54:51.415Z,34.90
2019-01-12T03:55:50.830Z,37.90
2019-01-12T03:56:50.830Z,37.90
2019-01-12T03:57:50.791Z,37.30
2019-01-12T03:58:50.771Z,38.70
2019-01-12T03:59:50.750Z,38.40
2019-01-12T04:00:50.734Z,35.10
2019-01-12T04:01:50.728Z,35.70
2019-01-12T04:02:50.684Z,37.80
2019-01-12T04:03:50.671Z,35.60
2019-01-12T04:04:50.639Z,36.50
2019-01-12T04:05:50.622Z,33.80
2019-01-12T04:06:50.600Z,34.40
2019-01-12T04:07:50.603Z,33.00
2019-01-12T04:08:50.568Z,34.10
2019-01-12T04:09:50.547Z,30.90
2019-01-12T04:10:50.515Z,31.60
2019-01-12T04:11:50.503Z,34.00
2019-01-12T04:12:50.492Z,31.70
2019-01-12T04:13:50.453Z,30.60
2019-01-12T04:14:50.430Z,32.00
2019-01-12T04:15:50.415Z,33.20
2019-01-12T04:16:50.390Z,31.60
2019-01-12T04:17:50.387Z,30.40
2019-01-12T04:18:50.349Z,31.10
2019-01-12T04:19:50.330Z,34.30
2019-01-12T04:20:50.305Z,32.20
2019-01-12T04:21:50.282Z,31.90
2019-01-12T04:22:50.285Z,31.50
2019-01-12T04:23:50.242Z,31.10
2019-01-12T04:24:50.221Z,32.50
2019-01-12T04:25:50.212Z,30.60
2019-01-12T04:26:50.180Z,30.60
2019-01-12T04:27:50.159Z,32.40
2019-01-12T04:28:50.135Z,31.00
2019-01-12T04:29:50.918Z,31.00
2019-01-12T04:30:50.094Z,31.40
2019-01-12T04:31:50.074Z,33.60
2019-01-12T04:32:50.059Z,33.10
2019-01-12T04:33:50.036Z,32.70
2019-01-12T04:34:50.026Z,31.40
2019-01-12T04:35:49.994Z,31.00
2019-01-12T04:36:49.964Z,30.80
2019-01-12T04:37:49.945Z,32.20
2019-01-12T04:38:49.951Z,31.10
2019-01-12T04:39:49.906Z,31.60
2019-01-12T04:40:49.881Z,30.30
2019-01-12T04:41:49.860Z,32.80
2019-01-12T04:42:49.843Z,32.00
2019-01-12T04:43:49.820Z,33.70
2019-01-12T04:44:49.811Z,29.50
2019-01-12T04:45:49.790Z,30.80
2019-01-12T04:46:49.753Z,29.30
2019-01-12T04:47:49.731Z,30.80
2019-01-12T04:48:49.716Z,31.60
2019-01-12T04:49:49.720Z,28.10
2019-01-12T04:50:49.671Z,27.10
2019-01-12T04:51:49.651Z,26.10
2019-01-12T04:52:49.649Z,25.60
2019-01-12T04:53:49.613Z,24.50
2019-01-12T04:54:49.604Z,24.60
2019-01-12T04:55:49.570Z,23.80
2019-01-12T04:56:49.544Z,24.90
2019-01-12T04:57:49.535Z,23.90
2019-01-12T04:58:49.503Z,23.70
2019-01-12T04:59:49.479Z,24.40
2019-01-12T05:00:49.465Z,27.20
2019-01-12T05:01:49.446Z,24.80
2019-01-12T05:02:49.431Z,23.30
2019-01-12T05:03:49.393Z,24.90
2019-01-12T05:04:49.370Z,25.30
2019-01-12T05:05:49.360Z,23.80
2019-01-12T05:06:49.332Z,23.60
2019-01-12T05:07:49.325Z,23.60
2019-01-12T05:08:49.289Z,23.70
2019-01-12T05:09:49.263Z,23.70
2019-01-12T05:10:49.250Z,25.10
2019-01-12T05:11:49.225Z,25.20
2019-01-12T05:12:49.204Z,24.70
2019-01-12T05:13:49.202Z,24.40
2019-01-12T05:14:49.161Z,25.70
2019-01-12T05:15:49.140Z,24.50
2019-01-12T05:16:49.118Z,25.20
2019-01-12T05:17:49.116Z,24.10
2019-01-12T05:18:49.080Z,25.70
2019-01-12T05:19:49.058Z,25.20
2019-01-12T05:20:49.069Z,25.90
2019-01-12T05:21:49.019Z,24.70
2019-01-12T05:22:49.014Z,25.50
2019-01-12T05:23:48.971Z,25.10
2019-01-12T05:24:48.957Z,24.70
2019-01-12T05:25:49.426Z,24.40
2019-01-12T05:26:48.905Z,25.40
2019-01-12T05:27:48.907Z,25.10
2019-01-12T05:28:48.866Z,25.70
2019-01-12T05:29:48.853Z,24.50
2019-01-12T05:30:48.833Z,25.90
2019-01-12T05:31:48.802Z,24.10
2019-01-12T05:32:48.792Z,24.20
2019-01-12T05:33:48.762Z,25.90
2019-01-12T05:34:48.756Z,27.80
2019-01-12T05:35:48.724Z,26.00
2019-01-12T05:36:48.728Z,24.70
2019-01-12T05:37:48.678Z,23.20
2019-01-12T05:38:48.651Z,24.60
2019-01-12T05:39:48.634Z,25.50
2019-01-12T05:40:48.610Z,22.50
2019-01-12T05:41:48.593Z,25.70
2019-01-12T05:42:48.590Z,23.50
2019-01-12T05:43:48.549Z,22.50
2019-01-12T05:44:48.527Z,22.70
2019-01-12T05:45:48.508Z,22.60
2019-01-12T05:46:49.468Z,23.60
2019-01-12T05:47:48.465Z,21.90
2019-01-12T05:48:48.479Z,21.90
2019-01-12T05:49:48.422Z,20.00
2019-01-12T05:50:48.400Z,22.10
2019-01-12T05:51:48.378Z,19.00
2019-01-12T05:52:48.354Z,22.70
2019-01-12T05:53:48.337Z,20.00
2019-01-12T05:54:48.328Z,19.80
2019-01-12T05:55:48.300Z,19.10
2019-01-12T05:56:48.273Z,19.50
2019-01-12T05:57:48.252Z,19.10
2019-01-12T05:58:48.223Z,19.40
2019-01-12T05:59:48.229Z,18.10
2019-01-12T06:00:48.190Z,18.00
2019-01-12T06:01:48.166Z,19.70
2019-01-12T06:02:48.165Z,18.80
2019-01-12T06:03:48.129Z,17.60
2019-01-12T06:04:48.101Z,19.30
2019-01-12T06:05:48.087Z,18.00
2019-01-12T06:06:48.068Z,16.70
2019-01-12T06:07:48.055Z,17.40
2019-01-12T06:08:48.016Z,16.60
2019-01-12T06:09:47.999Z,17.40
2019-01-12T06:10:47.970Z,17.80
2019-01-12T06:11:47.957Z,18.40
2019-01-12T06:12:47.932Z,18.00
2019-01-12T06:13:47.934Z,16.50
2019-01-12T06:14:47.897Z,16.80
2019-01-12T06:15:47.897Z,16.40
2019-01-12T06:16:47.853Z,17.30
2019-01-12T06:17:47.828Z,16.70
2019-01-12T06:18:47.806Z,17.10
2019-01-12T06:19:47.785Z,17.10
2019-01-12T06:20:47.793Z,16.00
2019-01-12T06:21:47.753Z,16.60
2019-01-12T06:22:47.726Z,17.00
2019-01-12T06:23:47.709Z,16.30
2019-01-12T06:24:47.683Z,16.90
2019-01-12T06:25:47.678Z,17.10
2019-01-12T06:26:47.639Z,16.30
2019-01-12T06:27:47.647Z,16.80
2019-01-12T06:28:47.611Z,16.70
2019-01-12T06:29:47.598Z,16.80
2019-01-12T06:30:47.588Z,15.90
2019-01-12T06:31:47.551Z,16.20
2019-01-12T06:32:47.510Z,16.10
2019-01-12T06:33:47.498Z,15.50
2019-01-12T06:34:47.475Z,16.30
2019-01-12T06:35:47.451Z,16.20
2019-01-12T06:36:47.446Z,15.90
2019-01-12T06:37:47.426Z,16.40
2019-01-12T06:38:47.395Z,17.30
2019-01-12T06:39:47.362Z,16.70
2019-01-12T06:40:47.345Z,16.40
2019-01-12T06:41:47.326Z,16.70
2019-01-12T06:42:47.323Z,18.00
2019-01-12T06:43:47.308Z,17.20
2019-01-12T06:44:47.260Z,19.10
2019-01-12T06:45:47.240Z,18.10
2019-01-12T06:46:47.218Z,17.90
2019-01-12T06:47:47.195Z,17.20
2019-01-12T06:48:47.194Z,18.30
2019-01-12T06:49:47.170Z,18.40
2019-01-12T06:50:47.135Z,19.60
2019-01-12T06:51:47.128Z,18.70
2019-01-12T06:52:47.094Z,18.50
2019-01-12T06:53:47.074Z,19.40
2019-01-12T06:54:47.065Z,20.40
2019-01-12T06:55:47.027Z,18.30
2019-01-12T06:56:47.028Z,20.20
2019-01-12T06:57:46.986Z,18.80
2019-01-12T06:58:46.967Z,20.40
2019-01-12T06:59:46.966Z,21.10
2019-01-12T07:00:47.036Z,19.20
2019-01-12T07:01:46.900Z,19.70
2019-01-12T07:02:46.878Z,19.30
2019-01-12T07:03:46.858Z,18.90
2019-01-12T07:04:46.852Z,19.20
2019-01-12T07:05:46.821Z,19.60
2019-01-12T07:06:46.816Z,18.30
2019-01-12T07:07:46.779Z,17.60
2019-01-12T07:08:46.749Z,18.20
2019-01-12T07:09:46.737Z,19.10
2019-01-12T07:10:46.707Z,19.70
2019-01-12T07:11:47.438Z,19.30
2019-01-12T07:12:46.695Z,19.00
2019-01-12T07:13:46.642Z,21.00
2019-01-12T07:14:46.624Z,19.10
2019-01-12T07:15:46.612Z,18.70
2019-01-12T07:16:46.582Z,19.10
2019-01-12T07:17:46.559Z,18.80
2019-01-12T07:18:46.557Z,18.90
2019-01-12T07:19:46.561Z,19.50
2019-01-12T07:20:46.514Z,20.30
2019-01-12T07:21:46.479Z,19.80
2019-01-12T07:22:46.530Z,21.30
2019-01-12T07:23:46.457Z,20.30
2019-01-12T07:24:46.448Z,21.00
2019-01-12T07:25:46.393Z,19.80
2019-01-12T07:26:46.372Z,21.10
2019-01-12T07:27:46.941Z,21.00
2019-01-12T07:28:46.327Z,20.40
2019-01-12T07:29:46.312Z,21.20
2019-01-12T07:30:46.285Z,21.20
2019-01-12T07:31:46.262Z,20.80
2019-01-12T07:32:46.246Z,21.70
2019-01-12T07:33:46.238Z,21.60
2019-01-12T07:34:46.201Z,22.30
2019-01-12T07:35:46.176Z,22.10
2019-01-12T07:36:46.162Z,21.40
2019-01-12T07:37:46.152Z,21.70
2019-01-12T07:38:46.116Z,23.10
2019-01-12T07:39:46.093Z,24.50
2019-01-12T07:40:46.067Z,23.20
2019-01-12T07:41:46.066Z,23.70
2019-01-12T07:42:46.029Z,23.00
2019-01-12T07:43:47.944Z,22.40
2019-01-12T07:44:45.993Z,22.10
2019-01-12T07:45:45.976Z,23.00
2019-01-12T07:46:45.945Z,22.70
2019-01-12T07:47:45.919Z,23.00
2019-01-12T07:48:45.897Z,22.60
2019-01-12T07:49:45.880Z,24.90
2019-01-12T07:50:45.873Z,23.60
2019-01-12T07:51:45.841Z,24.30
2019-01-12T07:52:45.813Z,23.60
2019-01-12T07:53:45.803Z,25.30
2019-01-12T07:54:45.792Z,25.40
2019-01-12T07:55:45.770Z,24.70
2019-01-12T07:56:45.735Z,28.20
2019-01-12T07:57:45.729Z,26.60
2019-01-12T07:58:45.693Z,26.60
2019-01-12T07:59:45.665Z,27.00
2019-01-12T08:00:45.661Z,27.00
2019-01-12T08:01:45.630Z,26.90
2019-01-12T08:02:45.625Z,29.40
2019-01-12T08:03:45.598Z,30.10
2019-01-12T08:04:45.557Z,27.90
2019-01-12T08:05:45.535Z,28.80
2019-01-12T08:06:45.519Z,29.20
2019-01-12T08:07:45.494Z,28.70
2019-01-12T08:08:45.493Z,28.50
2019-01-12T08:09:45.454Z,28.30
2019-01-12T08:10:45.433Z,27.80
2019-01-12T08:11:45.413Z,29.30
2019-01-12T08:12:45.388Z,28.10
2019-01-12T08:13:45.384Z,29.90
2019-01-12T08:14:45.376Z,27.50
2019-01-12T08:15:45.328Z,30.10
2019-01-12T08:16:45.305Z,29.50
2019-01-12T08:17:45.302Z,26.10
2019-01-12T08:18:45.263Z,27.90
2019-01-12T08:19:45.240Z,28.90
2019-01-12T08:20:45.222Z,26.00
2019-01-12T08:21:45.199Z,25.70
2019-01-12T08:22:45.178Z,26.20
2019-01-12T08:23:45.178Z,28.20
2019-01-12T08:24:45.130Z,26.90
2019-01-12T08:25:45.113Z,26.50
2019-01-12T08:26:45.092Z,27.00
2019-01-12T08:27:45.067Z,25.80
2019-01-12T08:28:45.063Z,27.70
2019-01-12T08:29:45.050Z,27.80
2019-01-12T08:30:45.034Z,26.80
2019-01-12T08:31:44.990Z,25.20
2019-01-12T08:32:44.962Z,25.70
2019-01-12T08:33:44.956Z,25.90
2019-01-12T08:34:44.930Z,27.70
2019-01-12T08:35:44.923Z,25.30
2019-01-12T08:36:44.889Z,26.50
2019-01-12T08:37:44.860Z,25.50
2019-01-12T08:38:44.838Z,25.80
2019-01-12T08:39:44.817Z,26.20
2019-01-12T08:40:44.816Z,26.60
2019-01-12T08:41:44.783Z,27.80
2019-01-12T08:42:44.767Z,28.50
2019-01-12T08:43:44.729Z,27.80
2019-01-12T08:44:44.706Z,26.70
2019-01-12T08:45:44.687Z,27.40
2019-01-12T08:46:44.667Z,28.70
2019-01-12T08:47:44.671Z,29.50
2019-01-12T08:48:44.624Z,29.40
2019-01-12T08:49:44.614Z,30.00
2019-01-12T08:50:44.597Z,30.80
2019-01-12T08:51:44.560Z,29.30
2019-01-12T08:52:44.555Z,30.20
2019-01-12T08:53:44.523Z,32.00
2019-01-12T08:54:44.505Z,30.00
2019-01-12T08:55:44.495Z,31.30
2019-01-12T08:56:44.453Z,31.30
2019-01-12T08:57:44.449Z,31.00
2019-01-12T08:58:44.429Z,32.60
2019-01-12T08:59:44.397Z,31.20
2019-01-12T09:00:44.387Z,30.90
2019-01-12T09:01:44.349Z,34.00
2019-01-12T09:02:44.344Z,32.60
2019-01-12T09:03:44.305Z,31.40
2019-01-12T09:04:44.306Z,32.20
2019-01-12T09:05:44.265Z,33.30
2019-01-12T09:06:44.247Z,33.00
2019-01-12T09:07:44.241Z,33.30
2019-01-12T09:08:44.200Z,30.80
2019-01-12T09:09:44.208Z,31.40
2019-01-12T09:10:44.158Z,30.00
2019-01-12T09:11:44.143Z,30.80
2019-01-12T09:12:44.121Z,32.50
2019-01-12T09:13:44.123Z,30.30
2019-01-12T09:14:44.085Z,33.90
2019-01-12T09:15:44.055Z,32.00
2019-01-12T09:16:44.041Z,30.70
2019-01-12T09:17:44.028Z,31.40
2019-01-12T09:18:44.011Z,32.70
2019-01-12T09:19:43.971Z,32.90
2019-01-12T09:20:43.984Z,32.90
2019-01-12T09:21:43.924Z,31.00
2019-01-12T09:22:43.957Z,29.60
2019-01-12T09:23:43.889Z,30.30
2019-01-12T09:24:43.883Z,30.70
2019-01-12T09:25:43.850Z,31.30
2019-01-12T09:26:44.995Z,29.30
2019-01-12T09:27:43.801Z,31.00
2019-01-12T09:28:43.777Z,30.50
2019-01-12T09:29:43.757Z,30.80
2019-01-12T09:30:48.414Z,32.50
2019-01-12T09:31:43.722Z,29.50
2019-01-12T09:32:43.692Z,31.00
2019-01-12T09:33:43.674Z,29.30
2019-01-12T09:34:43.695Z,30.40
2019-01-12T09:35:43.643Z,29.20
2019-01-12T09:36:43.627Z,28.70
2019-01-12T09:37:43.606Z,29.10
2019-01-12T09:38:43.571Z,28.10
2019-01-12T09:39:43.552Z,27.50
2019-01-12T09:40:43.562Z,28.70
2019-01-12T09:41:43.506Z,27.80
2019-01-12T09:42:43.486Z,29.40
2019-01-12T09:43:43.471Z,29.00
2019-01-12T09:44:43.443Z,29.00
2019-01-12T09:45:43.436Z,28.60
2019-01-12T09:46:43.417Z,28.40
2019-01-12T09:47:43.396Z,27.80
2019-01-12T09:48:43.359Z,28.00
2019-01-12T09:49:43.340Z,28.60
2019-01-12T09:50:43.331Z,29.60
2019-01-12T09:51:43.308Z,28.50
2019-01-12T09:52:43.287Z,27.20
2019-01-12T09:53:43.270Z,28.40
2019-01-12T09:54:43.240Z,27.10
2019-01-12T09:55:43.216Z,27.50
2019-01-12T09:56:43.214Z,27.30
2019-01-12T09:57:43.170Z,27.70
2019-01-12T09:58:43.168Z,28.20
2019-01-12T09:59:43.128Z,29.40
2019-01-12T10:00:43.111Z,30.60
2019-01-12T10:01:43.090Z,27.50
2019-01-12T10:02:43.090Z,28.40
2019-01-12T10:03:43.055Z,27.30
2019-01-12T10:04:43.026Z,28.90
2019-01-12T10:05:43.009Z,27.60
2019-01-12T10:06:42.989Z,28.30
2019-01-12T10:07:42.983Z,26.40
2019-01-12T10:08:42.969Z,28.60
2019-01-12T10:09:42.943Z,27.30
2019-01-12T10:10:42.906Z,27.60
2019-01-12T10:11:42.879Z,28.40
2019-01-12T10:12:42.888Z,28.30
2019-01-12T10:13:42.840Z,27.80
2019-01-12T10:14:42.818Z,27.10
2019-01-12T10:15:42.824Z,26.70
2019-01-12T10:16:42.786Z,26.40
2019-01-12T10:17:42.759Z,25.60
2019-01-12T10:18:42.768Z,27.50
2019-01-12T10:19:42.726Z,27.30
2019-01-12T10:20:42.688Z,25.90
2019-01-12T10:21:42.671Z,27.60
2019-01-12T10:22:42.653Z,26.80
2019-01-12T10:23:42.628Z,25.90
2019-01-12T10:24:42.665Z,26.50
2019-01-12T10:25:42.589Z,28.30
2019-01-12T10:26:42.565Z,26.90
2019-01-12T10:27:42.548Z,26.10
2019-01-12T10:28:42.528Z,26.40
2019-01-12T10:29:42.537Z,25.80
2019-01-12T10:30:42.486Z,27.50
2019-01-12T10:31:42.464Z,27.70
2019-01-12T10:32:42.436Z,26.70
2019-01-12T10:33:42.419Z,27.90
2019-01-12T10:34:42.405Z,27.80
2019-01-12T10:35:42.394Z,26.20
2019-01-12T10:36:42.355Z,27.40
2019-01-12T10:37:42.333Z,27.10
2019-01-12T10:38:42.322Z,26.40
2019-01-12T10:39:42.298Z,27.50
2019-01-12T10:40:42.272Z,28.00
2019-01-12T10:41:42.311Z,27.50
2019-01-12T10:42:42.246Z,27.30
2019-01-12T10:43:42.222Z,28.50
2019-01-12T10:44:42.188Z,27.40
2019-01-12T10:45:42.176Z,29.40
2019-01-12T10:46:42.147Z,27.60
2019-01-12T10:47:42.124Z,28.40
2019-01-12T10:48:42.123Z,27.20
2019-01-12T10:49:42.090Z,26.90
2019-01-12T10:50:42.091Z,25.90
2019-01-12T10:51:42.042Z,27.50
2019-01-12T10:52:42.015Z,25.10
2019-01-12T10:53:41.998Z,25.50
2019-01-12T10:54:41.996Z,25.30
2019-01-12T10:55:41.953Z,23.90
2019-01-12T10:56:41.939Z,24.90
2019-01-12T10:57:41.913Z,25.50
2019-01-12T10:58:41.895Z,24.90
2019-01-12T10:59:41.869Z,23.30
2019-01-12T11:00:41.864Z,24.30
2019-01-12T11:01:41.833Z,22.90
2019-01-12T11:02:41.830Z,23.60
2019-01-12T11:03:41.792Z,22.00
2019-01-12T11:04:41.768Z,24.20
2019-01-12T11:05:41.774Z,21.80
2019-01-12T11:06:41.732Z,22.00
2019-01-12T11:07:41.702Z,22.50
2019-01-12T11:08:41.691Z,23.40
2019-01-12T11:09:41.683Z,23.50
2019-01-12T11:10:41.637Z,23.50
2019-01-12T11:11:41.622Z,24.60
2019-01-12T11:12:41.602Z,24.10
2019-01-12T11:13:41.587Z,23.30
2019-01-12T11:14:41.565Z,24.00
2019-01-12T11:15:41.563Z,24.50
2019-01-12T11:16:41.531Z,26.80
2019-01-12T11:17:41.494Z,24.80
2019-01-12T11:18:41.471Z,27.60
2019-01-12T11:19:41.463Z,27.80
2019-01-12T11:20:41.453Z,25.90
2019-01-12T11:21:41.412Z,26.50
2019-01-12T11:22:41.386Z,27.50
2019-01-12T11:23:41.371Z,25.90
2019-01-12T11:24:41.374Z,25.90
2019-01-12T11:25:43.008Z,26.10
2019-01-12T11:26:41.310Z,29.50
2019-01-12T11:27:41.286Z,26.40
2019-01-12T11:28:41.274Z,27.60
2019-01-12T11:29:42.618Z,27.80
2019-01-12T11:30:41.267Z,26.70
2019-01-12T11:31:41.242Z,29.20
2019-01-12T11:32:41.231Z,31.90
2019-01-12T11:33:41.214Z,29.00
2019-01-12T11:34:41.200Z,28.70
2019-01-12T11:35:41.131Z,29.00
2019-01-12T11:36:41.157Z,27.70
2019-01-12T11:37:41.106Z,26.20
2019-01-12T11:38:41.062Z,27.60
2019-01-12T11:39:41.045Z,28.50
2019-01-12T11:40:41.017Z,28.80
2019-01-12T11:41:40.998Z,27.30
2019-01-12T11:42:40.996Z,29.00
2019-01-12T11:43:40.956Z,29.40
2019-01-12T11:44:40.932Z,28.00
2019-01-12T11:45:40.914Z,29.30
2019-01-12T11:46:40.892Z,28.20
2019-01-12T11:47:40.915Z,26.80
2019-01-12T11:48:40.868Z,27.10
2019-01-12T11:49:40.860Z,25.90
2019-01-12T11:50:40.818Z,26.30
2019-01-12T11:51:40.793Z,26.80
2019-01-12T11:52:40.763Z,25.70
2019-01-12T11:53:40.747Z,26.60
2019-01-12T11:54:40.753Z,24.50
2019-01-12T11:55:40.726Z,24.80
2019-01-12T11:56:40.680Z,24.20
2019-01-12T11:57:40.672Z,24.30
2019-01-12T11:58:40.643Z,22.60
2019-01-12T11:59:41.299Z,25.90
2019-01-12T12:00:40.600Z,24.40
2019-01-12T12:01:40.597Z,23.60
2019-01-12T12:02:40.557Z,25.00
2019-01-12T12:03:40.545Z,24.90
2019-01-12T12:04:40.513Z,26.40
2019-01-12T12:05:40.494Z,24.40
2019-01-12T12:06:40.474Z,23.70
2019-01-12T12:07:40.468Z,25.30
2019-01-12T12:08:40.433Z,25.40
2019-01-12T12:09:40.423Z,25.30
2019-01-12T12:10:40.386Z,24.30
2019-01-12T12:11:40.366Z,23.90
2019-01-12T12:12:40.403Z,25.20
2019-01-12T12:13:40.347Z,24.60
2019-01-12T12:14:40.305Z,25.80
2019-01-12T12:15:40.282Z,25.20
2019-01-12T12:16:40.258Z,23.30
2019-01-12T12:17:40.246Z,24.40
2019-01-12T12:18:40.217Z,23.60
2019-01-12T12:19:40.220Z,24.40
2019-01-12T12:20:40.175Z,25.40
2019-01-12T12:21:40.157Z,24.50
2019-01-12T12:22:40.136Z,25.30
2019-01-12T12:23:40.134Z,24.80
2019-01-12T12:24:40.093Z,24.80
2019-01-12T12:25:40.072Z,24.40
2019-01-12T12:26:40.053Z,24.00
2019-01-12T12:27:40.058Z,23.60
2019-01-12T12:28:40.009Z,24.60
2019-01-12T12:29:40.006Z,25.00
2019-01-12T12:30:39.974Z,24.70
2019-01-12T12:31:39.952Z,24.10
2019-01-12T12:32:39.939Z,27.00
2019-01-12T12:33:39.914Z,24.60
2019-01-12T12:34:39.883Z,24.60
2019-01-12T12:35:39.881Z,23.40
2019-01-12T12:36:39.859Z,25.80
2019-01-12T12:37:39.841Z,24.30
2019-01-12T12:38:39.818Z,24.10
2019-01-12T12:39:39.782Z,27.70
2019-01-12T12:40:39.770Z,24.90
2019-01-12T12:41:39.736Z,24.30
2019-01-12T12:42:39.730Z,23.80
2019-01-12T12:43:39.720Z,24.00
2019-01-12T12:44:39.679Z,25.10
2019-01-12T12:45:39.665Z,22.80
2019-01-12T12:46:39.636Z,22.10
2019-01-12T12:47:39.629Z,21.90
2019-01-12T12:48:39.613Z,22.80
2019-01-12T12:49:39.581Z,21.70
2019-01-12T12:50:39.572Z,20.00
2019-01-12T12:51:39.528Z,23.10
2019-01-12T12:52:39.527Z,22.00